Accueil
METAR-TAF:

METAR-TAF

Aéroports :

Ribeirão Preto, São Paulo, Brésil

latitude: 21-08S, longitude: 047-47W, altitude: 549 m

Observation

Le bulletin a été fait il y a 28 minutes, à 08:00 UTC
Vent 7 kt de sud-est
Température 16°C
Humidité 88%
Pression 1015 hPa
Visibilité 10 km ou plus
pas de nuages en-dessous de 1500 mètres et pas de cumulonimbus.

METAR: SBRP 090800Z 14007KT CAVOK 16/14 Q1015

Heure: 05:28 (08:28 UTC)

Prévision

Le bulletin a été fait il y a 6 heures et 58 minutes, à 01:30 UTC
Prévision valable du 09 à 06 UTC au 09 à 18 UTC
Vent 7 kt de sud/sud-est
Visibilité 10 km ou plus
pas de nuages en-dessous de 1500 mètres et pas de cumulonimbus.
Evoluant progressivement
du 09 à 13 UTC au 09 à 15 UTC
Vent 5 kt de sud-est
Nuages épars à une hauteur de 3500 ft

TAF: SBRP 090130Z 0906/0918 16007KT CAVOK TN18/0908Z TX30/0917Z BECMG 0913/0915 13005KT SCT035 RMK PGL

Observations et prévisions météorologiques de plus de 4000 aéroports (messages METAR et TAF).

Les stations disponibles sont représentées par des disques jaunes et rouges sur la carte.

Passer la souris dessus pour voir le nom de la station.

Cliquer dessus pour voir les observations et prévisions météorologiques.

Pour changer de carte: cliquez sur les boutons verts avec une croix noire pour zoomer, sur le bouton vert avec un tiret pour effectuer un zoom arrière, ou sur les flèches vertes pour les cartes adjacentes.


METAR-TAF: